Black Point Port Essington, Australia
Current Conditions -  °F | °C
As of 6:00 PM on Thursday 23 Oct 2014 (Local Time) from YPDN Reporting Station
Clear Clear  
Wind Chill: 88°   Ceiling: Unl
Heat Index: 88°   Visibility: 6mi
Dew Point: 59°   Wind: 9mph
Humidity: 38%   Direction: 350°N
Pressure: 29.83"   Gusts: NA
Location:  11.15°S, 132.13°E
Report Text: YPDN 230900Z 35008KT CAVOK 31/15 Q1010 NOSIG
Loading
Personal Weather Stations






























Interactive Weather Map
Tropical Storm Tracking
New forecast layout! Learn more

10-Day Weather Forecast

Advertisements
Track Severe Weather on mobile